createdAt,value
2022-11-24T00:01:19.074Z,20.50
2022-11-24T00:06:16.189Z,23.98
2022-11-24T00:11:15.599Z,22.95
2022-11-24T00:16:14.105Z,22.63
2022-11-24T00:21:12.014Z,22.10
2022-11-24T00:26:11.334Z,22.42
2022-11-24T00:31:17.413Z,23.00
2022-11-24T00:36:16.117Z,21.55
2022-11-24T00:41:13.806Z,22.40
2022-11-24T00:46:10.795Z,20.95
2022-11-24T00:51:10.102Z,27.58
2022-11-24T00:56:08.931Z,25.70
2022-11-24T01:01:07.442Z,26.23
2022-11-24T01:06:06.016Z,25.58
2022-11-24T01:11:12.506Z,23.27
2022-11-24T01:16:15.716Z,26.30
2022-11-24T01:21:13.414Z,28.13
2022-11-24T01:26:12.426Z,24.25
2022-11-24T01:31:10.741Z,28.58
2022-11-24T01:36:07.731Z,22.85
2022-11-24T01:41:06.789Z,26.52
2022-11-24T01:46:12.975Z,25.15
2022-11-24T01:51:13.817Z,23.15
2022-11-24T01:56:12.805Z,24.67
2022-11-24T02:01:11.435Z,26.25
2022-11-24T02:06:13.104Z,25.58
2022-11-24T02:11:10.122Z,23.77
2022-11-24T02:16:10.248Z,22.80
2022-11-24T02:21:09.616Z,25.50
2022-11-24T02:26:15.337Z,24.52
2022-11-24T02:31:13.676Z,25.45
2022-11-24T02:36:10.804Z,21.83
2022-11-24T02:41:11.199Z,23.67
2022-11-24T02:46:08.823Z,26.10
2022-11-24T02:51:06.541Z,21.40
2022-11-24T02:56:03.745Z,27.45
2022-11-24T03:01:00.510Z,24.88
2022-11-24T03:05:57.420Z,29.00
2022-11-24T03:10:55.239Z,29.30
2022-11-24T03:15:52.259Z,28.38
2022-11-24T03:20:49.179Z,29.42
2022-11-24T03:25:46.087Z,28.58
2022-11-24T03:30:43.761Z,31.27
2022-11-24T03:35:40.886Z,27.23
2022-11-24T03:40:37.796Z,28.67
2022-11-24T03:45:49.833Z,28.90
2022-11-24T03:50:53.948Z,29.73
2022-11-24T03:55:51.008Z,25.23
2022-11-24T04:00:49.119Z,28.42
2022-11-24T04:05:46.140Z,29.52
2022-11-24T04:10:44.033Z,27.83
2022-11-24T04:15:42.171Z,30.55
2022-11-24T04:20:39.979Z,29.55
2022-11-24T04:25:37.470Z,30.67
2022-11-24T04:30:37.953Z,25.33
2022-11-24T04:35:35.594Z,29.88
2022-11-24T04:40:32.648Z,28.88
2022-11-24T04:45:29.659Z,34.13
2022-11-24T04:50:27.487Z,23.55
2022-11-24T04:55:24.345Z,26.60
2022-11-24T05:00:21.539Z,26.42
2022-11-24T05:05:18.754Z,23.65
2022-11-24T05:10:40.565Z,21.38
2022-11-24T05:15:38.219Z,23.33
2022-11-24T05:20:35.622Z,24.92
2022-11-24T05:25:33.953Z,17.90
2022-11-24T05:31:05.337Z,20.02
2022-11-24T05:36:31.165Z,16.30
2022-11-24T05:41:28.626Z,14.77
2022-11-24T05:46:26.368Z,14.95
2022-11-24T05:51:24.862Z,13.80
2022-11-24T05:56:22.203Z,14.70
2022-11-24T06:01:19.775Z,12.23
2022-11-24T06:06:16.627Z,14.93
2022-11-24T06:11:19.533Z,14.00
2022-11-24T06:16:16.372Z,15.27
2022-11-24T06:21:14.067Z,13.88
2022-11-24T06:26:11.307Z,12.48
2022-11-24T06:31:09.340Z,11.57
2022-11-24T06:36:10.070Z,14.32
2022-11-24T06:41:11.658Z,13.75
2022-11-24T06:46:08.683Z,13.30
2022-11-24T06:51:07.550Z,14.38
2022-11-24T06:56:12.121Z,11.15
2022-11-24T07:01:15.909Z,10.82
2022-11-24T07:06:12.831Z,10.93
2022-11-24T07:11:12.667Z,13.30
2022-11-24T07:16:15.319Z,15.25
2022-11-24T07:21:12.623Z,15.32
2022-11-24T07:26:10.308Z,15.35
2022-11-24T07:31:07.829Z,13.15
2022-11-24T07:36:07.037Z,13.98
2022-11-24T07:41:06.878Z,15.55
2022-11-24T07:46:04.993Z,14.80
2022-11-24T07:51:02.797Z,17.33
2022-11-24T07:56:02.379Z,15.20
2022-11-24T08:00:59.802Z,18.77
2022-11-24T08:06:22.808Z,20.58
2022-11-24T08:11:18.395Z,16.20
2022-11-24T08:16:17.219Z,17.67
2022-11-24T08:21:14.466Z,15.00
2022-11-24T08:26:15.294Z,16.42
2022-11-24T08:31:15.048Z,14.13
2022-11-24T08:36:14.366Z,11.40
2022-11-24T08:41:14.054Z,10.07
2022-11-24T08:46:13.958Z,11.32
2022-11-24T08:51:13.219Z,10.48
2022-11-24T08:56:11.424Z,9.63
2022-11-24T09:01:09.754Z,10.90
2022-11-24T09:06:08.383Z,11.52
2022-11-24T09:11:07.340Z,14.27
2022-11-24T09:16:05.145Z,15.27
2022-11-24T09:21:10.006Z,16.23
2022-11-24T09:26:08.445Z,11.40
2022-11-24T09:31:07.404Z,13.20
2022-11-24T09:36:05.269Z,13.23
2022-11-24T09:41:49.264Z,9.77
2022-11-24T09:46:58.197Z,17.27
2022-11-24T09:51:56.179Z,13.82
2022-11-24T09:56:55.140Z,17.60
2022-11-24T10:01:53.792Z,19.92
2022-11-24T10:07:00.050Z,17.55
2022-11-24T10:12:12.694Z,17.40
2022-11-24T10:17:18.501Z,18.33
2022-11-24T10:22:31.036Z,17.58
2022-11-24T10:27:37.445Z,17.70
2022-11-24T10:32:40.056Z,21.13
2022-11-24T10:37:43.237Z,21.55
2022-11-24T10:42:42.099Z,21.25
2022-11-24T10:47:39.925Z,21.80
2022-11-24T10:52:41.089Z,25.83
2022-11-24T10:57:40.561Z,22.38
2022-11-24T11:02:39.367Z,21.17
2022-11-24T11:07:36.233Z,13.05
2022-11-24T11:12:43.960Z,6.80
2022-11-24T11:17:44.225Z,5.78
2022-11-24T11:22:44.090Z,3.92
2022-11-24T11:27:42.195Z,2.38
2022-11-24T11:38:11.621Z,2.75
2022-11-24T11:43:19.639Z,2.97
2022-11-24T11:48:32.464Z,2.83
2022-11-24T11:53:44.788Z,5.05
2022-11-24T11:59:12.231Z,5.00
2022-11-24T12:04:20.317Z,4.68
2022-11-24T12:09:27.721Z,4.70
2022-11-24T12:14:32.445Z,3.63
2022-11-24T12:19:50.010Z,4.80
2022-11-24T12:24:56.733Z,4.97
2022-11-24T12:30:09.457Z,6.15
2022-11-24T12:35:20.698Z,4.90
2022-11-24T12:40:31.629Z,6.35
2022-11-24T12:45:38.714Z,5.43
2022-11-24T12:50:38.194Z,6.90
2022-11-24T12:55:37.634Z,6.78
2022-11-24T13:00:42.605Z,8.88
2022-11-24T13:05:47.078Z,7.65
2022-11-24T13:10:55.806Z,6.90
2022-11-24T13:21:47.529Z,6.75
2022-11-24T13:26:47.683Z,6.80
2022-11-24T13:31:44.659Z,7.22
2022-11-24T13:36:54.491Z,9.48
2022-11-24T13:42:09.230Z,6.35
2022-11-24T13:47:31.808Z,7.00
2022-11-24T13:52:51.995Z,7.97
2022-11-24T13:57:51.323Z,6.90
2022-11-24T14:02:49.092Z,9.27
2022-11-24T14:07:49.331Z,7.82
2022-11-24T14:12:46.851Z,7.45
2022-11-24T14:17:43.668Z,7.38
2022-11-24T14:22:42.116Z,8.68
2022-11-24T14:27:39.543Z,8.55
2022-11-24T14:32:37.520Z,8.23
2022-11-24T14:37:34.644Z,11.13
2022-11-24T14:42:32.688Z,10.55
2022-11-24T14:47:32.399Z,13.70
2022-11-24T14:52:30.444Z,11.57
2022-11-24T14:57:32.110Z,11.48
2022-11-24T15:02:41.407Z,11.13
2022-11-24T15:07:41.114Z,10.35
2022-11-24T15:12:40.717Z,16.40
2022-11-24T15:17:41.146Z,9.32
2022-11-24T15:22:41.374Z,9.85
2022-11-24T15:27:38.191Z,9.27
2022-11-24T15:32:35.075Z,11.60
2022-11-24T15:37:34.222Z,11.25
2022-11-24T15:42:32.588Z,8.45
2022-11-24T15:47:29.579Z,9.18
2022-11-24T15:52:26.545Z,11.63
2022-11-24T15:57:23.921Z,10.35
2022-11-24T16:02:22.518Z,10.27
2022-11-24T16:07:19.600Z,11.23
2022-11-24T16:12:16.687Z,10.82
2022-11-24T16:17:13.716Z,10.90
2022-11-24T16:22:11.319Z,9.60
2022-11-24T16:27:08.299Z,9.98
2022-11-24T16:32:06.149Z,9.57
2022-11-24T16:37:03.660Z,9.95
2022-11-24T16:42:01.525Z,9.13
2022-11-24T16:46:58.561Z,9.38
2022-11-24T16:51:55.557Z,10.77
2022-11-24T16:56:52.668Z,10.65
2022-11-24T17:01:53.879Z,9.52
2022-11-24T17:06:51.458Z,10.05
2022-11-24T17:11:48.301Z,13.02
2022-11-24T17:16:45.327Z,13.82
2022-11-24T17:21:43.014Z,8.07
2022-11-24T17:26:44.737Z,9.85
2022-11-24T17:36:45.381Z,8.07
2022-11-24T17:41:42.388Z,10.05
2022-11-24T17:46:39.353Z,8.70
2022-11-24T17:51:36.294Z,14.32
2022-11-24T17:56:33.799Z,11.02
2022-11-24T18:01:31.707Z,9.30
2022-11-24T18:06:28.628Z,8.75
2022-11-24T18:11:31.368Z,6.90
2022-11-24T18:16:30.782Z,9.27
2022-11-24T18:21:28.322Z,7.13
2022-11-24T18:26:25.185Z,6.57
2022-11-24T18:31:22.279Z,8.07
2022-11-24T18:36:23.598Z,8.27
2022-11-24T18:41:23.937Z,7.10
2022-11-24T18:46:21.591Z,8.32
2022-11-24T18:51:19.608Z,7.07
2022-11-24T18:56:17.583Z,7.75
2022-11-24T19:01:16.201Z,9.05
2022-11-24T19:06:16.190Z,6.72
2022-11-24T19:11:18.670Z,6.30
2022-11-24T19:16:16.741Z,7.65
2022-11-24T19:21:13.708Z,5.82
2022-11-24T19:26:10.700Z,6.65
2022-11-24T19:31:10.928Z,6.70
2022-11-24T19:36:11.816Z,5.95
2022-11-24T19:41:11.864Z,7.80
2022-11-24T19:46:11.379Z,7.07
2022-11-24T19:51:10.704Z,7.60
2022-11-24T19:56:12.579Z,6.32
2022-11-24T20:01:13.107Z,7.82
2022-11-24T20:06:12.903Z,8.23
2022-11-24T20:11:12.327Z,8.63
2022-11-24T20:16:12.005Z,7.82
2022-11-24T20:21:10.239Z,8.90
2022-11-24T20:26:09.892Z,7.93
2022-11-24T20:31:09.849Z,5.68
2022-11-24T20:36:10.546Z,10.20
2022-11-24T20:41:09.608Z,7.45
2022-11-24T20:46:08.534Z,8.25
2022-11-24T20:51:12.007Z,7.07
2022-11-24T20:56:11.623Z,5.85
2022-11-24T21:01:10.875Z,6.47
2022-11-24T21:06:09.631Z,7.05
2022-11-24T21:11:08.528Z,5.63
2022-11-24T21:16:12.676Z,5.68
2022-11-24T21:21:11.039Z,5.47
2022-11-24T21:26:13.137Z,5.70
2022-11-24T21:31:15.260Z,5.75
2022-11-24T21:36:14.687Z,6.43
2022-11-24T21:41:13.323Z,6.45
2022-11-24T21:46:15.126Z,6.53
2022-11-24T21:51:14.979Z,5.85
2022-11-24T21:56:13.213Z,5.97
2022-11-24T22:01:11.245Z,6.70
2022-11-24T22:06:09.194Z,5.07
2022-11-24T22:11:11.174Z,5.80
2022-11-24T22:16:10.554Z,6.25
2022-11-24T22:21:10.426Z,7.03
2022-11-24T22:26:12.551Z,6.45
2022-11-24T22:31:12.526Z,5.30
2022-11-24T22:36:10.521Z,4.93
2022-11-24T22:41:10.201Z,4.55
2022-11-24T22:46:10.306Z,6.13
2022-11-24T22:51:08.822Z,6.20
2022-11-24T22:56:08.833Z,5.95
2022-11-24T23:01:06.356Z,5.07
2022-11-24T23:06:04.957Z,5.30
2022-11-24T23:11:03.882Z,5.85
2022-11-24T23:16:02.747Z,5.72
2022-11-24T23:21:05.774Z,5.72
2022-11-24T23:26:04.085Z,6.72
2022-11-24T23:31:03.299Z,5.22
2022-11-24T23:36:01.922Z,6.05
2022-11-24T23:40:59.949Z,4.95
2022-11-24T23:46:03.066Z,5.00
2022-11-24T23:51:04.522Z,6.28
2022-11-24T23:56:01.593Z,11.02
